| Date | Time | Temp. (oF) | Dew Point (oF) | Rel. Hum. (%) | Press. (in.) | Wind Dir. (deg.) | Wind Speed (mph) | Hourly Rainfall (i n.) |
|
|---|---|---|---|---|---|---|---|---|---|
| 1 | 11/20 | 24:00 | 45 | 39 | 81 | 30.30 | 140 | 2 | 0.00 |
| 2 | 11/19 | 23:00 | 44 | 36 | 74 | 30.30 | 130 | 2 | 0.00 |
| 3 | 11/19 | 22:00 | 45 | 35 | 70 | 30.32 | 130 | 4 | 0.00 |
| 4 | 11/19 | 21:00 | 44 | 33 | 67 | 30.32 | 120 | 6 | 0.00 |
| 5 | 11/19 | 20:00 | 44 | 30 | 59 | 30.32 | 150 | 0 | 0.00 |
| 6 | 11/19 | 19:00 | 43 | 28 | 56 | 30.33 | 130 | 0 | 0.00 |
| 7 | 11/19 | 18:00 | 46 | 28 | 50 | 30.35 | 130 | 0 | 0.00 |
| 8 | 11/19 | 17:00 | 51 | 29 | 43 | 30.35 | 130 | 1 | 0.00 |
| 9 | 11/19 | 16:00 | 54 | 28 | 37 | 30.36 | 170 | 6 | 0.00 |
| 10 | 11/19 | 15:00 | 56 | 29 | 36 | 30.36 | 170 | 6 | 0.00 |
| 11 | 11/19 | 14:00 | 57 | 30 | 37 | 30.36 | 140 | 10 | 0.00 |
| 12 | 11/19 | 13:00 | 57 | 32 | 39 | 30.37 | 130 | 7 | 0.00 |
| 13 | 11/19 | 12:00 | 54 | 33 | 46 | 30.39 | 140 | 6 | 0.00 |
| 14 | 11/19 | 11:00 | 50 | 33 | 54 | 30.41 | 130 | 2 | 0.00 |
| 15 | 11/19 | 10:00 | 45 | 35 | 68 | 30.41 | 140 | 1 | 0.00 |
| 16 | 11/19 | 09:00 | 37 | 31 | 81 | 30.40 | 140 | 0 | 0.00 |
| 17 | 11/19 | 08:00 | 33 | 27 | 81 | 30.39 | 140 | 0 | 0.00 |
| 18 | 11/19 | 07:00 | 32 | 27 | 82 | 30.36 | 140 | 0 | 0.00 |
| 19 | 11/19 | 06:00 | 32 | 26 | 81 | 30.36 | 140 | 0 | 0.00 |
| 20 | 11/19 | 05:00 | 33 | 27 | 81 | 30.36 | 140 | 1 | 0.00 |
| 21 | 11/19 | 04:00 | 33 | 27 | 79 | 30.35 | 140 | 0 | 0.00 |
| 22 | 11/19 | 03:00 | 34 | 28 | 79 | 30.36 | 140 | 0 | 0.00 |
| 23 | 11/19 | 02:00 | 35 | 28 | 77 | 30.37 | 140 | 0 | 0.00 |
| 24 | 11/19 | 01:00 | 36 | 28 | 73 | 30.37 | 140 | 0 | 0.00 |